createdAt,value
2017-07-23T00:00:53.471Z,70.67
2017-07-23T00:03:21.137Z,70.34
2017-07-23T00:05:48.814Z,70.54
2017-07-23T00:08:16.547Z,70.79
2017-07-23T00:10:44.278Z,70.77
2017-07-23T00:13:11.932Z,70.76
2017-07-23T00:15:39.555Z,70.48
2017-07-23T00:18:07.200Z,70.25
2017-07-23T00:20:34.886Z,69.68
2017-07-23T00:23:02.521Z,70.23
2017-07-23T00:25:30.179Z,70.31
2017-07-23T00:27:57.829Z,70.50
2017-07-23T00:30:25.447Z,70.05
2017-07-23T00:32:53.097Z,70.06
2017-07-23T00:35:20.762Z,70.04
2017-07-23T00:37:48.412Z,70.66
2017-07-23T00:40:16.132Z,70.93
2017-07-23T00:42:43.807Z,70.46
2017-07-23T00:45:11.460Z,70.58
2017-07-23T00:47:39.080Z,70.66
2017-07-23T00:50:06.741Z,71.11
2017-07-23T00:52:34.371Z,71.09
2017-07-23T00:55:02.021Z,71.71
2017-07-23T00:57:29.663Z,72.15
2017-07-23T00:59:57.323Z,71.87
2017-07-23T01:02:24.973Z,72.55
2017-07-23T01:04:52.613Z,72.53
2017-07-23T01:07:20.228Z,72.72
2017-07-23T01:09:47.871Z,72.53
2017-07-23T01:12:15.482Z,72.15
2017-07-23T01:14:43.116Z,71.33
2017-07-23T01:17:10.751Z,70.92
2017-07-23T01:19:38.391Z,71.22
2017-07-23T01:22:06.004Z,71.43
2017-07-23T01:24:33.762Z,71.52
2017-07-23T01:27:01.439Z,71.41
2017-07-23T01:29:29.091Z,71.47
2017-07-23T01:31:56.694Z,71.89
2017-07-23T01:34:24.362Z,72.11
2017-07-23T01:36:51.985Z,72.32
2017-07-23T01:39:19.635Z,72.26
2017-07-23T01:41:47.263Z,72.80
2017-07-23T01:44:14.899Z,73.32
2017-07-23T01:46:42.622Z,74.83
2017-07-23T01:49:10.274Z,75.50
2017-07-23T01:51:37.922Z,75.99
2017-07-23T01:54:05.606Z,76.65
2017-07-23T01:56:33.224Z,77.38
2017-07-23T01:59:00.907Z,78.17
2017-07-23T02:01:28.697Z,78.28
2017-07-23T02:03:56.327Z,79.20
2017-07-23T02:06:23.985Z,79.00
2017-07-23T02:08:51.649Z,79.77
2017-07-23T02:11:19.306Z,80.36
2017-07-23T02:13:47.317Z,80.45
2017-07-23T02:16:14.943Z,81.05
2017-07-23T02:18:42.572Z,80.96
2017-07-23T02:21:10.230Z,81.74
2017-07-23T02:23:37.868Z,81.61
2017-07-23T02:26:05.517Z,82.14
2017-07-23T02:28:33.144Z,82.49
2017-07-23T02:31:00.792Z,83.03
2017-07-23T02:33:28.434Z,83.45
2017-07-23T02:35:56.142Z,83.71
2017-07-23T02:38:23.837Z,84.48
2017-07-23T02:40:51.605Z,84.20
2017-07-23T02:43:19.414Z,84.58
2017-07-23T02:45:47.148Z,84.36
2017-07-23T02:48:14.823Z,85.12
2017-07-23T02:50:42.540Z,84.92
2017-07-23T02:53:10.288Z,85.07
2017-07-23T02:55:39.017Z,85.11
2017-07-23T02:58:06.706Z,85.23
2017-07-23T03:00:34.386Z,85.86
2017-07-23T03:03:02.060Z,85.38
2017-07-23T03:05:29.762Z,84.99
2017-07-23T03:07:57.399Z,85.53
2017-07-23T03:10:25.067Z,85.53
2017-07-23T03:12:52.694Z,84.96
2017-07-23T03:15:20.354Z,85.14
2017-07-23T03:17:47.999Z,85.33
2017-07-23T03:20:15.669Z,85.84
2017-07-23T03:22:43.297Z,85.95
2017-07-23T03:25:10.982Z,85.93
2017-07-23T03:27:38.606Z,85.44
2017-07-23T03:30:06.293Z,85.71
2017-07-23T03:32:33.965Z,85.90
2017-07-23T03:35:01.637Z,85.91
2017-07-23T03:37:29.316Z,85.90
2017-07-23T03:39:57.007Z,85.98
2017-07-23T03:42:24.637Z,86.20
2017-07-23T03:44:52.579Z,85.94
2017-07-23T03:47:20.225Z,86.37
2017-07-23T03:49:47.920Z,86.34
2017-07-23T03:52:15.578Z,86.30
2017-07-23T03:54:43.230Z,86.88
2017-07-23T03:57:10.885Z,87.04
2017-07-23T03:59:38.507Z,87.31
2017-07-23T04:02:06.161Z,87.54
2017-07-23T04:04:33.813Z,87.38
2017-07-23T04:07:01.508Z,87.57
2017-07-23T04:09:29.182Z,87.57
2017-07-23T04:11:56.856Z,87.49
2017-07-23T04:14:24.507Z,87.28
2017-07-23T04:16:52.264Z,87.16
2017-07-23T04:19:19.888Z,87.67
2017-07-23T04:21:47.532Z,87.85
2017-07-23T04:24:15.217Z,87.64
2017-07-23T04:26:42.867Z,87.65
2017-07-23T04:29:10.496Z,87.76
2017-07-23T04:31:38.185Z,87.53
2017-07-23T04:34:05.848Z,87.39
2017-07-23T04:36:33.535Z,87.18
2017-07-23T04:39:01.163Z,87.39
2017-07-23T04:41:28.826Z,87.44
2017-07-23T04:43:56.465Z,87.52
2017-07-23T04:46:24.123Z,87.51
2017-07-23T04:48:51.745Z,87.46
2017-07-23T04:51:19.469Z,87.57
2017-07-23T04:53:47.089Z,87.23
2017-07-23T04:56:14.727Z,86.76
2017-07-23T04:58:42.531Z,86.55
2017-07-23T05:01:10.182Z,86.08
2017-07-23T05:03:37.807Z,86.06
2017-07-23T05:06:05.447Z,86.04
2017-07-23T05:08:33.068Z,85.51
2017-07-23T05:11:00.717Z,84.65
2017-07-23T05:13:28.345Z,84.76
2017-07-23T05:15:55.954Z,85.37
2017-07-23T05:18:23.626Z,84.96
2017-07-23T05:20:51.270Z,85.17
2017-07-23T05:23:18.919Z,85.06
2017-07-23T05:25:46.539Z,85.64
2017-07-23T05:28:14.216Z,85.95
2017-07-23T05:30:41.814Z,85.46
2017-07-23T05:33:09.454Z,85.43
2017-07-23T05:35:37.074Z,85.11
2017-07-23T05:38:04.808Z,84.83
2017-07-23T05:40:32.472Z,84.51
2017-07-23T05:43:00.127Z,84.57
2017-07-23T05:45:27.739Z,84.01
2017-07-23T05:47:55.373Z,83.70
2017-07-23T05:50:22.971Z,83.68
2017-07-23T05:52:50.913Z,83.59
2017-07-23T05:55:18.662Z,83.23
2017-07-23T05:57:46.308Z,83.34
2017-07-23T06:00:13.952Z,82.94
2017-07-23T06:02:41.657Z,82.60
2017-07-23T06:05:09.299Z,82.91
2017-07-23T06:07:37.004Z,83.28
2017-07-23T06:10:04.622Z,82.35
2017-07-23T06:12:32.254Z,83.15
2017-07-23T06:14:59.879Z,82.91
2017-07-23T06:17:27.912Z,83.36
2017-07-23T06:19:55.598Z,83.31
2017-07-23T06:22:23.222Z,83.65
2017-07-23T06:24:50.869Z,83.68
2017-07-23T06:27:18.506Z,84.26
2017-07-23T06:29:46.123Z,84.42
2017-07-23T06:32:13.757Z,84.51
2017-07-23T06:34:41.419Z,84.74
2017-07-23T06:37:09.046Z,84.42
2017-07-23T06:39:37.061Z,84.65
2017-07-23T06:42:04.714Z,84.69
2017-07-23T06:44:32.329Z,84.77
2017-07-23T06:46:59.983Z,85.18
2017-07-23T06:49:27.603Z,84.93
2017-07-23T06:51:55.521Z,84.79
2017-07-23T06:54:23.139Z,84.70
2017-07-23T06:56:50.782Z,84.90
2017-07-23T06:59:18.522Z,84.44
2017-07-23T07:01:46.190Z,84.63
2017-07-23T07:04:13.837Z,83.93
2017-07-23T07:06:41.463Z,83.78
2017-07-23T07:09:09.088Z,83.79
2017-07-23T07:11:36.813Z,84.24
2017-07-23T07:14:04.516Z,83.90
2017-07-23T07:16:32.230Z,83.32
2017-07-23T07:19:00.283Z,82.94
2017-07-23T07:21:27.899Z,82.60
2017-07-23T07:23:56.486Z,82.10
2017-07-23T07:26:24.175Z,81.73
2017-07-23T07:28:51.806Z,81.85
2017-07-23T07:31:19.447Z,81.24
2017-07-23T07:33:47.086Z,80.31
2017-07-23T07:36:15.267Z,80.79
2017-07-23T07:38:42.878Z,80.13
2017-07-23T07:41:10.560Z,79.51
2017-07-23T07:43:38.203Z,79.74
2017-07-23T07:46:05.826Z,80.06
2017-07-23T07:48:33.751Z,79.49
2017-07-23T07:51:01.505Z,79.79
2017-07-23T07:53:29.151Z,79.57
2017-07-23T07:55:56.807Z,79.79
2017-07-23T07:58:24.436Z,78.81
2017-07-23T08:00:52.107Z,78.49
2017-07-23T08:03:19.710Z,78.53
2017-07-23T08:05:47.431Z,77.84
2017-07-23T08:08:15.032Z,78.98
2017-07-23T08:10:42.950Z,77.78
2017-07-23T08:13:10.592Z,77.32
2017-07-23T08:15:38.239Z,76.78
2017-07-23T08:18:05.923Z,76.70
2017-07-23T08:20:33.577Z,75.98
2017-07-23T08:23:01.251Z,76.19
2017-07-23T08:25:28.921Z,77.81
2017-07-23T08:27:56.913Z,77.97
2017-07-23T08:30:24.636Z,77.32
2017-07-23T08:32:52.254Z,77.84
2017-07-23T08:35:19.933Z,77.66
2017-07-23T08:37:47.563Z,78.00
2017-07-23T08:40:15.227Z,78.06
2017-07-23T08:42:42.850Z,76.65
2017-07-23T08:45:10.520Z,75.87
2017-07-23T08:47:38.334Z,75.40
2017-07-23T08:50:06.016Z,75.52
2017-07-23T08:52:33.692Z,74.50
2017-07-23T08:55:01.380Z,73.85
2017-07-23T08:57:29.016Z,74.08
2017-07-23T08:59:56.675Z,73.83
2017-07-23T09:02:24.332Z,72.88
2017-07-23T09:04:51.963Z,73.91
2017-07-23T09:07:19.603Z,74.84
2017-07-23T09:09:47.319Z,73.52
2017-07-23T09:12:15.306Z,73.54
2017-07-23T09:14:42.936Z,72.18
2017-07-23T09:17:10.598Z,72.77
2017-07-23T09:19:38.229Z,70.79
2017-07-23T09:22:05.859Z,69.56
2017-07-23T09:24:33.493Z,68.70
2017-07-23T09:27:01.136Z,70.05
2017-07-23T09:29:29.077Z,70.32
2017-07-23T09:31:56.698Z,69.66
2017-07-23T09:34:24.352Z,69.17
2017-07-23T09:36:52.026Z,68.53
2017-07-23T09:39:19.721Z,68.58
2017-07-23T09:41:47.412Z,69.49
2017-07-23T09:44:15.046Z,68.33
2017-07-23T09:46:42.689Z,69.78
2017-07-23T09:49:10.368Z,69.91
2017-07-23T09:51:39.245Z,68.95
2017-07-23T09:54:06.882Z,70.07
2017-07-23T09:56:34.541Z,71.25
2017-07-23T09:59:02.194Z,71.10
2017-07-23T10:01:29.834Z,69.87
2017-07-23T10:03:57.452Z,70.08
2017-07-23T10:06:25.159Z,70.16
2017-07-23T10:08:53.035Z,68.95
2017-07-23T10:11:21.172Z,67.61
2017-07-23T10:13:48.817Z,67.75
2017-07-23T10:16:16.634Z,68.59
2017-07-23T10:18:44.792Z,64.18
2017-07-23T10:21:12.448Z,63.84
2017-07-23T10:23:40.071Z,63.05
2017-07-23T10:26:07.735Z,66.34
2017-07-23T10:28:35.393Z,66.47
2017-07-23T10:31:03.039Z,65.99
2017-07-23T10:33:30.664Z,65.80
2017-07-23T10:35:58.333Z,64.36
2017-07-23T10:38:26.493Z,65.55
2017-07-23T10:40:54.125Z,62.01
2017-07-23T10:43:21.778Z,64.62
2017-07-23T10:45:49.430Z,67.02
2017-07-23T10:48:17.122Z,63.20
2017-07-23T10:50:44.794Z,63.04
2017-07-23T10:53:12.435Z,64.95
2017-07-23T10:55:40.075Z,64.30
2017-07-23T10:58:10.035Z,61.62
2017-07-23T11:00:37.787Z,63.31
2017-07-23T11:03:05.462Z,66.51
2017-07-23T11:05:33.119Z,63.69
2017-07-23T11:08:01.278Z,62.22
2017-07-23T11:10:28.938Z,62.61
2017-07-23T11:12:56.586Z,62.62
2017-07-23T11:15:24.248Z,62.61
2017-07-23T11:17:52.040Z,63.30
2017-07-23T11:20:20.932Z,59.48
2017-07-23T11:22:50.001Z,59.67
2017-07-23T11:25:17.657Z,60.56
2017-07-23T11:27:45.311Z,60.95
2017-07-23T11:30:12.948Z,59.65
2017-07-23T11:32:40.630Z,57.37
2017-07-23T11:35:08.343Z,59.69
2017-07-23T11:37:36.010Z,60.05
2017-07-23T11:40:03.745Z,58.38
2017-07-23T11:42:31.394Z,56.57
2017-07-23T11:44:59.031Z,59.39
2017-07-23T11:47:26.734Z,58.12
2017-07-23T11:49:54.382Z,58.43
2017-07-23T11:52:22.035Z,59.03
2017-07-23T11:54:49.788Z,56.19
2017-07-23T11:57:18.744Z,59.45
2017-07-23T11:59:46.827Z,58.69
2017-07-23T12:02:14.512Z,58.52
2017-07-23T12:04:42.144Z,56.96
2017-07-23T12:07:09.849Z,56.16
2017-07-23T12:09:37.704Z,56.69
2017-07-23T12:12:05.404Z,57.06
2017-07-23T12:14:33.398Z,57.39
2017-07-23T12:17:01.172Z,57.24
2017-07-23T12:19:28.783Z,56.88
2017-07-23T12:21:56.585Z,57.49
2017-07-23T12:24:24.242Z,56.77
2017-07-23T12:26:52.248Z,56.57
2017-07-23T12:29:19.980Z,57.21
2017-07-23T12:31:47.682Z,56.14
2017-07-23T12:34:15.546Z,56.28
2017-07-23T12:36:43.325Z,56.99
2017-07-23T12:39:10.989Z,56.29
2017-07-23T12:41:38.678Z,54.34
2017-07-23T12:44:06.330Z,54.52
2017-07-23T12:46:33.995Z,55.42
2017-07-23T12:49:01.638Z,55.47
2017-07-23T12:51:29.338Z,54.92
2017-07-23T12:53:57.062Z,57.38
2017-07-23T12:56:24.720Z,52.48
2017-07-23T12:58:53.822Z,52.87
2017-07-23T13:01:21.467Z,51.22
2017-07-23T13:03:49.204Z,50.67
2017-07-23T13:06:16.859Z,52.03
2017-07-23T13:08:44.819Z,52.47
2017-07-23T13:13:46.578Z,53.51
2017-07-23T13:16:14.208Z,53.66
2017-07-23T13:18:42.257Z,53.98
2017-07-23T13:21:09.926Z,52.59
2017-07-23T13:23:37.535Z,53.39
2017-07-23T13:26:05.165Z,54.17
2017-07-23T13:28:32.786Z,53.91
2017-07-23T13:31:00.516Z,54.90
2017-07-23T13:33:28.118Z,54.83
2017-07-23T13:35:55.763Z,56.28
2017-07-23T13:38:23.420Z,56.15
2017-07-23T13:40:51.534Z,55.68
2017-07-23T13:43:19.221Z,52.58
2017-07-23T13:45:47.180Z,55.67
2017-07-23T13:48:14.820Z,52.68
2017-07-23T13:50:42.486Z,52.86
2017-07-23T13:53:10.227Z,54.99
2017-07-23T13:55:37.888Z,57.32
2017-07-23T13:58:05.541Z,54.84
2017-07-23T14:00:33.181Z,58.02
2017-07-23T14:03:00.985Z,56.98
2017-07-23T14:05:28.645Z,56.03
2017-07-23T14:07:56.271Z,54.63
2017-07-23T14:10:23.941Z,55.22
2017-07-23T14:12:51.871Z,53.00
2017-07-23T14:15:19.534Z,55.10
2017-07-23T14:17:47.194Z,54.82
2017-07-23T14:20:15.488Z,52.48
2017-07-23T14:22:43.108Z,54.96
2017-07-23T14:25:10.763Z,55.22
2017-07-23T14:27:38.399Z,52.96
2017-07-23T14:30:06.034Z,53.76
2017-07-23T14:32:33.660Z,55.06
2017-07-23T14:35:01.699Z,54.24
2017-07-23T14:37:29.294Z,55.27
2017-07-23T14:39:56.947Z,54.86
2017-07-23T14:42:24.611Z,55.40
2017-07-23T14:44:52.260Z,53.55
2017-07-23T14:47:19.892Z,54.08
2017-07-23T14:49:47.568Z,52.37
2017-07-23T14:52:15.245Z,54.68
2017-07-23T14:54:42.864Z,54.47
2017-07-23T14:57:10.773Z,53.07
2017-07-23T14:59:38.392Z,54.14
2017-07-23T15:02:06.043Z,54.63
2017-07-23T15:04:33.672Z,52.27
2017-07-23T15:07:01.438Z,53.68
2017-07-23T15:09:29.361Z,52.34
2017-07-23T15:11:57.123Z,53.79
2017-07-23T15:14:24.754Z,51.73
2017-07-23T15:16:52.428Z,53.96
2017-07-23T15:19:20.076Z,54.53
2017-07-23T15:21:48.047Z,56.00
2017-07-23T15:24:15.689Z,55.07
2017-07-23T15:26:43.313Z,55.25
2017-07-23T15:29:11.351Z,54.53
2017-07-23T15:31:39.292Z,56.33
2017-07-23T15:34:06.948Z,55.12
2017-07-23T15:36:34.777Z,53.45
2017-07-23T15:39:02.437Z,53.07
2017-07-23T15:41:30.063Z,53.08
2017-07-23T15:43:58.298Z,52.27
2017-07-23T15:46:25.943Z,53.12
2017-07-23T15:48:53.551Z,53.25
2017-07-23T15:51:21.175Z,52.41
2017-07-23T15:53:48.803Z,54.45
2017-07-23T15:56:16.464Z,54.08
2017-07-23T15:58:44.099Z,52.84
2017-07-23T16:01:11.768Z,50.64
2017-07-23T16:03:39.410Z,51.92
2017-07-23T16:06:07.101Z,52.25
2017-07-23T16:08:34.735Z,53.67
2017-07-23T16:11:02.418Z,51.16
2017-07-23T16:13:30.053Z,53.17
2017-07-23T16:15:57.770Z,52.03
2017-07-23T16:18:25.414Z,53.90
2017-07-23T16:20:53.410Z,52.87
2017-07-23T16:23:21.057Z,52.88
2017-07-23T16:25:48.708Z,54.53
2017-07-23T16:28:16.333Z,53.53
2017-07-23T16:30:44.006Z,54.61
2017-07-23T16:33:11.616Z,53.57
2017-07-23T16:35:39.290Z,52.97
2017-07-23T16:38:06.997Z,54.54
2017-07-23T16:40:35.591Z,53.79
2017-07-23T16:43:03.237Z,53.03
2017-07-23T16:45:31.119Z,54.96
2017-07-23T16:47:58.788Z,54.93
2017-07-23T16:50:26.557Z,54.64
2017-07-23T16:52:54.420Z,53.23
2017-07-23T16:55:22.044Z,55.32
2017-07-23T16:57:49.699Z,54.58
2017-07-23T17:00:17.477Z,54.83
2017-07-23T17:02:45.149Z,54.92
2017-07-23T17:05:13.423Z,54.52
2017-07-23T17:07:41.064Z,55.11
2017-07-23T17:10:08.672Z,54.99
2017-07-23T17:12:37.241Z,55.53
2017-07-23T17:15:04.842Z,55.50
2017-07-23T17:17:32.983Z,54.56
2017-07-23T17:20:00.737Z,54.05
2017-07-23T17:22:28.411Z,54.47
2017-07-23T17:24:56.067Z,55.70
2017-07-23T17:27:23.740Z,54.61
2017-07-23T17:29:51.370Z,55.05
2017-07-23T17:32:19.039Z,55.59
2017-07-23T17:34:46.832Z,55.68
2017-07-23T17:37:14.491Z,55.91
2017-07-23T17:39:42.236Z,55.89
2017-07-23T17:42:09.899Z,54.01
2017-07-23T17:44:37.562Z,55.02
2017-07-23T17:47:05.254Z,54.14
2017-07-23T17:49:32.913Z,54.79
2017-07-23T17:52:00.574Z,54.59
2017-07-23T17:54:28.209Z,54.45
2017-07-23T17:56:55.877Z,55.07
2017-07-23T17:59:23.589Z,55.86
2017-07-23T18:01:51.932Z,55.74
2017-07-23T18:04:19.558Z,54.45
2017-07-23T18:06:47.240Z,55.51
2017-07-23T18:09:14.860Z,55.88
2017-07-23T18:11:42.535Z,56.28
2017-07-23T18:14:10.181Z,56.16
2017-07-23T18:16:37.805Z,54.99
2017-07-23T18:19:05.572Z,54.88
2017-07-23T18:21:33.220Z,54.98
2017-07-23T18:24:00.973Z,55.85
2017-07-23T18:26:28.604Z,57.00
2017-07-23T18:28:56.234Z,56.61
2017-07-23T18:31:23.852Z,56.64
2017-07-23T18:33:51.546Z,57.00
2017-07-23T18:36:19.181Z,57.34
2017-07-23T18:38:47.122Z,57.27
2017-07-23T18:41:14.828Z,57.02
2017-07-23T18:43:42.564Z,57.71
2017-07-23T18:46:10.268Z,58.70
2017-07-23T18:48:37.928Z,58.04
2017-07-23T18:51:05.571Z,58.10
2017-07-23T18:53:33.192Z,58.45
2017-07-23T18:56:01.379Z,59.09
2017-07-23T18:58:29.007Z,58.26
2017-07-23T19:00:56.614Z,57.74
2017-07-23T19:03:24.268Z,58.11
2017-07-23T19:05:52.187Z,58.98
2017-07-23T19:08:19.827Z,58.85
2017-07-23T19:10:47.476Z,60.39
2017-07-23T19:13:15.515Z,62.15
2017-07-23T19:15:43.149Z,64.37
2017-07-23T19:18:10.811Z,65.91
2017-07-23T19:20:38.462Z,66.54
2017-07-23T19:23:06.100Z,66.87
2017-07-23T19:25:33.753Z,67.60
2017-07-23T19:28:01.420Z,68.07
2017-07-23T19:30:29.084Z,68.53
2017-07-23T19:32:56.705Z,68.66
2017-07-23T19:35:24.470Z,68.41
2017-07-23T19:37:52.104Z,68.93
2017-07-23T19:40:20.137Z,69.31
2017-07-23T19:42:47.816Z,69.48
2017-07-23T19:45:15.447Z,69.77
2017-07-23T19:47:43.086Z,69.77
2017-07-23T19:50:10.712Z,69.89
2017-07-23T19:52:38.353Z,69.88
2017-07-23T19:55:06.169Z,69.97
2017-07-23T19:57:34.112Z,70.12
2017-07-23T20:00:01.746Z,70.19
2017-07-23T20:02:29.436Z,70.51
2017-07-23T20:04:57.122Z,70.97
2017-07-23T20:07:24.720Z,71.06
2017-07-23T20:09:52.463Z,71.80
2017-07-23T20:12:20.248Z,72.29
2017-07-23T20:14:48.159Z,72.89
2017-07-23T20:17:15.850Z,73.47
2017-07-23T20:19:43.529Z,73.94
2017-07-23T20:22:11.212Z,74.08
2017-07-23T20:24:39.011Z,74.47
2017-07-23T20:27:06.675Z,74.29
2017-07-23T20:29:34.510Z,74.66
2017-07-23T20:32:02.170Z,74.83
2017-07-23T20:34:29.812Z,75.43
2017-07-23T20:36:57.439Z,75.68
2017-07-23T20:39:25.411Z,75.97
2017-07-23T20:41:53.029Z,76.31
2017-07-23T20:44:20.679Z,76.52
2017-07-23T20:46:48.329Z,76.37
2017-07-23T20:49:15.998Z,76.88
2017-07-23T20:51:45.006Z,76.64
2017-07-23T20:54:12.681Z,76.72
2017-07-23T20:56:40.621Z,76.59
2017-07-23T20:59:08.238Z,76.24
2017-07-23T21:01:35.865Z,76.47
2017-07-23T21:04:03.560Z,76.36
2017-07-23T21:06:31.227Z,76.54
2017-07-23T21:08:58.869Z,76.37
2017-07-23T21:11:26.517Z,76.35
2017-07-23T21:13:54.257Z,76.45
2017-07-23T21:16:21.947Z,75.83
2017-07-23T21:18:49.596Z,76.57
2017-07-23T21:21:17.326Z,76.85
2017-07-23T21:23:44.955Z,77.17
2017-07-23T21:26:12.862Z,77.22
2017-07-23T21:28:40.621Z,77.15
2017-07-23T21:31:08.217Z,76.73
2017-07-23T21:33:35.898Z,76.87
2017-07-23T21:36:03.585Z,77.07
2017-07-23T21:38:31.246Z,76.90
2017-07-23T21:40:58.901Z,77.08
2017-07-23T21:43:26.533Z,77.21
2017-07-23T21:45:54.199Z,77.19
2017-07-23T21:48:22.097Z,77.12
2017-07-23T21:50:49.894Z,77.60
2017-07-23T21:53:17.488Z,77.22
2017-07-23T21:55:45.190Z,77.16
2017-07-23T21:58:12.860Z,77.39
2017-07-23T22:00:40.854Z,76.84
2017-07-23T22:03:08.476Z,76.22
2017-07-23T22:05:36.075Z,76.35
2017-07-23T22:08:03.742Z,76.07
2017-07-23T22:10:31.367Z,76.84
2017-07-23T22:12:59.003Z,77.13
2017-07-23T22:15:26.627Z,77.23
2017-07-23T22:17:54.636Z,77.35
2017-07-23T22:20:22.256Z,77.54
2017-07-23T22:22:50.019Z,77.53
2017-07-23T22:25:17.695Z,77.96
2017-07-23T22:27:45.332Z,78.25
2017-07-23T22:30:12.969Z,78.58
2017-07-23T22:32:40.609Z,79.09
2017-07-23T22:35:08.296Z,79.73
2017-07-23T22:37:36.021Z,80.45
2017-07-23T22:40:03.650Z,80.79
2017-07-23T22:42:31.446Z,81.13
2017-07-23T22:44:59.079Z,81.29
2017-07-23T22:47:27.005Z,81.23
2017-07-23T22:49:54.649Z,81.26
2017-07-23T22:52:22.295Z,80.88
2017-07-23T22:54:50.048Z,81.53
2017-07-23T22:57:17.676Z,81.83
2017-07-23T22:59:45.318Z,82.55
2017-07-23T23:02:12.991Z,82.51
2017-07-23T23:04:40.901Z,82.92
2017-07-23T23:07:08.532Z,83.10
2017-07-23T23:09:36.338Z,82.37
2017-07-23T23:12:04.061Z,82.14
2017-07-23T23:14:31.729Z,82.55
2017-07-23T23:16:59.392Z,83.05
2017-07-23T23:19:27.047Z,83.34
2017-07-23T23:21:54.665Z,83.15
2017-07-23T23:24:22.460Z,83.14
2017-07-23T23:26:50.303Z,83.38
2017-07-23T23:29:17.958Z,83.72
2017-07-23T23:31:45.589Z,83.81
2017-07-23T23:34:13.221Z,83.79
2017-07-23T23:36:40.885Z,84.05
2017-07-23T23:39:08.882Z,83.86
2017-07-23T23:41:36.517Z,84.20
2017-07-23T23:44:04.160Z,84.35
2017-07-23T23:46:31.898Z,84.39
2017-07-23T23:48:59.667Z,84.35
2017-07-23T23:51:27.327Z,84.49
2017-07-23T23:53:54.951Z,84.44
2017-07-23T23:56:22.598Z,84.41
2017-07-23T23:58:50.225Z,84.33
